Time;durP1;ratioP1;P1;durP2;ratioP2;P2;SDS_P1;SDS_P2;PMS_P1;PMS_P2;Temp;Humidity;BMP_temperature;BMP_pressure;BME280_temperature;BME280_humidity;BME280_pressure;Samples;Min_cycle;Max_cycle;Signal;HPM_P1;HPM_P2
2023/06/12 00:00:10;;;;;;;18.65;13.18;;;;;;;30.07;70.67;100686.47;5110967;27;69332;-41
2023/06/12 00:02:45;;;;;;;20.55;12.13;;;;;;;30.16;71.57;100685.16;5099908;27;65646;-40
2023/06/12 00:05:19;;;;;;;19.35;11.95;;;;;;;30.12;72.53;100673.13;5103308;27;70338;-43
2023/06/12 00:07:55;;;;;;;15.07;11.40;;;;;;;30.22;73.38;100678.88;5102425;27;65098;-42
2023/06/12 00:10:27;;;;;;;19.73;11.40;;;;;;;30.26;73.65;100674.69;5102634;27;70053;-43
2023/06/12 00:12:58;;;;;;;14.63;10.67;;;;;;;30.34;73.46;100670.03;5109739;27;66107;-43
2023/06/12 00:15:30;;;;;;;15.70;11.13;;;;;;;30.14;74.54;100632.31;5107495;27;69272;-43
2023/06/12 00:18:02;;;;;;;19.10;10.88;;;;;;;30.35;74.09;100675.25;5119426;27;65152;-40
2023/06/12 00:20:34;;;;;;;18.20;11.45;;;;;;;30.45;73.94;100689.09;5105915;27;69844;-41
2023/06/12 00:23:06;;;;;;;14.93;10.25;;;;;;;30.38;73.56;100671.25;5111511;27;66583;-40
2023/06/12 00:25:38;;;;;;;13.63;9.93;;;;;;;30.40;73.94;100669.19;5112852;27;70374;-41
2023/06/12 00:28:09;;;;;;;12.00;9.82;;;;;;;30.50;73.62;100688.41;5106828;27;65491;-41
2023/06/12 00:30:41;;;;;;;18.57;9.90;;;;;;;30.53;73.08;100690.69;5095665;27;70106;-40
2023/06/12 00:33:12;;;;;;;11.73;10.53;;;;;;;30.57;72.80;100691.09;5092710;27;65374;-41
2023/06/12 00:35:44;;;;;;;10.13;9.32;;;;;;;30.59;72.98;100686.25;5102648;27;69144;-41
2023/06/12 00:38:15;;;;;;;16.27;9.55;;;;;;;30.60;73.34;100679.81;5112004;27;65986;-41
2023/06/12 00:40:47;;;;;;;9.38;8.57;;;;;;;30.54;73.38;100675.28;5109194;27;69784;-42
2023/06/12 00:43:19;;;;;;;18.50;9.95;;;;;;;30.63;73.77;100682.88;5112287;27;66342;-42
2023/06/12 00:45:50;;;;;;;7.97;7.20;;;;;;;30.68;70.79;100683.06;5106226;27;70171;-41
2023/06/12 00:48:22;;;;;;;6.95;6.47;;;;;;;30.72;70.18;100694.25;5100604;27;66495;-41
2023/06/12 00:50:56;;;;;;;6.80;6.40;;;;;;;30.73;69.79;100690.50;5115891;27;69467;-41
2023/06/12 00:53:28;;;;;;;7.28;6.63;;;;;;;30.75;68.85;100692.97;5122433;27;66752;-42
2023/06/12 00:56:00;;;;;;;7.20;6.80;;;;;;;30.81;69.15;100695.63;5121205;27;69951;-41
2023/06/12 00:58:31;;;;;;;6.93;6.53;;;;;;;30.75;68.68;100682.16;5093730;27;66471;-42
2023/06/12 01:01:03;;;;;;;6.60;6.20;;;;;;;30.86;68.67;100695.81;5101060;27;69295;-40
2023/06/12 01:03:35;;;;;;;7.03;6.53;;;;;;;30.86;68.33;100694.97;5108883;27;66456;-41
2023/06/12 01:06:13;;;;;;;7.07;6.57;;;;;;;30.06;68.46;100555.81;5114303;27;70061;-40
2023/06/12 01:09:00;;;;;;;5.82;5.53;;;;;;;30.91;68.21;100692.44;5103200;27;66393;-40
2023/06/12 01:11:34;;;;;;;6.63;6.10;;;;;;;30.30;68.12;100595.78;5110292;27;69673;-41
2023/06/12 01:14:06;;;;;;;7.35;6.68;;;;;;;30.97;67.99;100696.94;5113179;27;66419;-40
2023/06/12 01:16:40;;;;;;;6.38;5.97;;;;;;;30.94;67.72;100698.22;5101866;27;70585;-41
2023/06/12 01:19:13;;;;;;;6.78;6.28;;;;;;;31.02;67.90;100710.63;5108774;27;66084;-40
2023/06/12 01:21:50;;;;;;;6.43;6.03;;;;;;;31.05;67.34;100717.50;5108212;27;70371;-44
2023/06/12 01:25:01;;;;;;;6.18;5.80;;;;;;;30.97;68.11;100715.91;5121246;27;66314;-41
2023/06/12 01:27:45;;;;;;;5.95;5.55;;;;;;;31.06;67.46;100711.00;5112531;27;69572;-40
2023/06/12 01:30:46;;;;;;;5.90;5.60;;;;;;;31.09;67.50;100716.81;5099088;27;66093;-40
2023/06/12 01:33:30;;;;;;;6.10;5.80;;;;;;;30.21;66.99;100574.38;5105403;27;70057;-41
2023/06/12 01:36:03;;;;;;;6.57;6.18;;;;;;;30.48;67.17;100606.63;5105372;27;65638;-40
2023/06/12 01:38:35;;;;;;;6.72;6.18;;;;;;;31.16;66.79;100695.06;5103083;27;69995;-40
2023/06/12 01:41:09;;;;;;;6.50;6.10;;;;;;;31.14;66.57;100687.16;5119214;27;65362;-41
2023/06/12 01:43:40;;;;;;;5.75;5.45;;;;;;;31.16;66.63;100700.47;5109534;27;69558;-40
2023/06/12 01:46:12;;;;;;;6.40;6.00;;;;;;;31.13;66.32;100701.75;5109284;27;66988;-41
2023/06/12 01:48:43;;;;;;;6.35;5.95;;;;;;;31.15;66.52;100705.06;5106078;27;69846;-41
2023/06/12 01:51:14;;;;;;;;;;;;;;;30.96;67.84;100721.56;5111716;27;66409;-40
2023/06/12 01:53:46;;;;;;;6.28;5.88;;;;;;;31.24;66.56;100710.19;5119173;27;70707;-41
2023/06/12 01:56:17;;;;;;;6.20;5.70;;;;;;;31.21;66.39;100706.06;5115806;27;65180;-40
2023/06/12 01:58:49;;;;;;;5.75;5.45;;;;;;;31.28;66.05;100714.91;5119748;27;69822;-41
2023/06/12 02:01:40;;;;;;;6.63;6.23;;;;;;;31.32;66.08;100724.25;5109339;27;64936;-39
2023/06/12 02:04:13;;;;;;;6.55;6.15;;;;;;;31.09;66.21;100684.31;5092231;27;69917;-41
2023/06/12 02:06:44;;;;;;;6.00;5.60;;;;;;;31.37;65.99;100723.59;5107653;27;66731;-40
2023/06/12 02:09:16;;;;;;;5.70;5.40;;;;;;;31.32;65.85;100704.47;5122666;27;69297;-40
2023/06/12 02:11:48;;;;;;;5.57;5.25;;;;;;;31.46;65.72;100724.97;5105880;27;66308;-40
2023/06/12 02:14:20;;;;;;;6.20;5.72;;;;;;;31.28;65.63;100689.69;5122212;27;70518;-40
2023/06/12 02:16:55;;;;;;;5.57;5.20;;;;;;;31.49;65.59;100724.50;5112515;27;66486;-39
2023/06/12 02:19:26;;;;;;;5.82;5.53;;;;;;;31.52;65.61;100723.22;5104084;27;69730;-40
2023/06/12 02:21:58;;;;;;;5.50;5.20;;;;;;;31.38;65.49;100698.16;5113416;27;66114;-41
2023/06/12 02:24:33;;;;;;;6.70;6.30;;;;;;;31.57;65.46;100729.59;5086811;27;70589;-40
2023/06/12 02:27:05;;;;;;;5.60;5.20;;;;;;;31.59;65.03;100727.50;5114045;27;65712;-40
2023/06/12 02:29:37;;;;;;;6.05;5.55;;;;;;;31.57;65.55;100724.19;5117402;27;69480;-41
2023/06/12 02:32:08;;;;;;;5.97;5.57;;;;;;;31.56;65.15;100719.78;5102308;27;66643;-41
2023/06/12 02:34:40;;;;;;;5.80;5.45;;;;;;;31.59;65.57;100713.94;5101527;27;70255;-40
2023/06/12 02:37:12;;;;;;;5.45;5.15;;;;;;;31.68;65.46;100714.44;5103213;27;66528;-41
2023/06/12 02:39:46;;;;;;;5.60;5.30;;;;;;;31.67;64.90;100712.78;5106606;27;70074;-44
2023/06/12 02:42:17;;;;;;;5.45;5.05;;;;;;;31.73;65.18;100716.44;5105151;27;65553;-40
2023/06/12 02:44:49;;;;;;;5.75;5.45;;;;;;;31.75;64.93;100722.47;5117160;27;69069;-40
2023/06/12 02:47:22;;;;;;;5.70;5.40;;;;;;;31.76;65.03;100713.28;5131000;27;65991;-40
2023/06/12 02:49:53;;;;;;;;;;;;;;;31.52;65.63;100715.91;5118119;27;70313;-40
2023/06/12 02:52:29;;;;;;;5.68;5.28;;;;;;;31.80;64.66;100706.34;5111636;27;67466;-40
2023/06/12 02:55:00;;;;;;;6.05;5.55;;;;;;;31.85;64.43;100711.09;5109635;27;70249;-41
2023/06/12 02:57:32;;;;;;;5.90;5.40;;;;;;;31.75;64.72;100698.06;5099051;27;66593;-40
2023/06/12 03:00:03;;;;;;;5.97;5.43;;;;;;;31.90;64.38;100717.47;5107596;27;70530;-40
2023/06/12 03:02:44;;;;;;;5.45;5.15;;;;;;;31.95;64.09;100724.94;5109895;27;66751;-41
2023/06/12 03:05:16;;;;;;;5.45;5.05;;;;;;;31.97;64.13;100723.63;5101617;27;71085;-40
2023/06/12 03:07:48;;;;;;;6.22;5.15;;;;;;;31.12;64.19;100586.31;5104011;27;66086;-40
2023/06/12 03:10:19;;;;;;;5.45;5.13;;;;;;;31.90;64.06;100684.91;5107385;27;70398;-42
2023/06/12 03:12:51;;;;;;;4.90;4.60;;;;;;;31.99;64.26;100702.53;5110677;27;66550;-41
2023/06/12 03:15:22;;;;;;;5.83;5.37;;;;;;;32.04;64.06;100705.38;5108536;27;70170;-40
2023/06/12 03:17:53;;;;;;;5.43;4.93;;;;;;;32.05;64.10;100693.47;5098296;27;66182;-38
2023/06/12 03:20:26;;;;;;;4.55;4.20;;;;;;;32.02;64.04;100685.78;5106994;27;69870;-42
2023/06/12 03:22:57;;;;;;;4.95;4.65;;;;;;;32.10;63.93;100691.97;5123488;27;65277;-40
2023/06/12 03:25:29;;;;;;;5.28;4.90;;;;;;;32.09;64.14;100680.25;5115448;27;69657;-41
2023/06/12 03:28:00;;;;;;;4.50;4.30;;;;;;;32.11;63.94;100686.28;5101834;27;66542;-41
2023/06/12 03:30:32;;;;;;;5.28;4.90;;;;;;;31.94;63.68;100653.56;5101052;27;69887;-42
2023/06/12 03:33:04;;;;;;;4.28;4.07;;;;;;;32.14;63.78;100685.00;5115082;27;66744;-42
2023/06/12 03:35:36;;;;;;;4.85;4.55;;;;;;;32.18;63.82;100675.31;5101702;27;70386;-41
2023/06/12 03:38:07;;;;;;;4.73;4.37;;;;;;;32.17;63.53;100674.47;5116460;27;65796;-41
2023/06/12 03:40:38;;;;;;;4.95;4.65;;;;;;;32.19;63.77;100672.38;5114429;27;69953;-41
2023/06/12 03:43:10;;;;;;;4.45;4.15;;;;;;;32.00;63.65;100635.53;5101242;27;66151;-41
2023/06/12 03:45:41;;;;;;;4.40;4.20;;;;;;;32.20;63.65;100656.91;5103458;27;70044;-40
2023/06/12 03:48:13;;;;;;;4.35;4.05;;;;;;;32.23;63.52;100662.72;5107283;27;65418;-41
2023/06/12 03:50:44;;;;;;;4.57;4.18;;;;;;;32.24;63.30;100653.50;5108318;27;69818;-41
2023/06/12 03:53:15;;;;;;;;;;;;;;;31.98;64.15;100659.34;5102385;27;66622;-40
2023/06/12 03:55:47;;;;;;;5.05;4.00;;;;;;;32.27;63.41;100641.34;5104752;27;70298;-41
2023/06/12 03:58:18;;;;;;;4.10;3.90;;;;;;;32.13;63.40;100629.06;5098452;27;65084;-42
2023/06/12 04:00:49;;;;;;;4.30;4.00;;;;;;;32.28;63.45;100634.84;5099564;27;70560;-41
2023/06/12 04:03:21;;;;;;;3.95;3.58;;;;;;;32.34;63.32;100636.63;5102851;27;65242;-41
2023/06/12 04:05:54;;;;;;;3.63;3.42;;;;;;;32.38;63.40;100626.94;5110731;27;70264;-41
2023/06/12 04:08:26;;;;;;;4.15;3.85;;;;;;;32.39;63.50;100625.88;5111807;27;66954;-41
2023/06/12 04:10:57;;;;;;;3.63;3.42;;;;;;;32.38;63.33;100621.53;5100689;27;68981;-41
2023/06/12 04:13:29;;;;;;;3.75;3.55;;;;;;;32.27;63.20;100597.91;5105647;27;65423;-40
2023/06/12 04:16:00;;;;;;;4.00;3.70;;;;;;;32.43;63.11;100627.06;5091930;27;70121;-41
2023/06/12 04:18:32;;;;;;;3.60;3.40;;;;;;;32.42;62.97;100617.25;5103429;27;65657;-40
2023/06/12 04:21:07;;;;;;;;;;;;;;;32.18;63.50;100621.03;5097201;27;69346;-40
2023/06/12 04:23:41;;;;;;;3.65;3.45;;;;;;;32.45;62.98;100622.22;5107464;27;67093;-41
2023/06/12 04:26:12;;;;;;;4.07;3.78;;;;;;;32.52;62.61;100615.88;5101301;27;70467;-40
2023/06/12 04:28:46;;;;;;;4.22;3.92;;;;;;;32.52;62.74;100615.88;5110571;27;65881;-42
2023/06/12 04:31:19;;;;;;;3.28;3.08;;;;;;;32.54;62.75;100611.00;5101565;27;69834;-41
2023/06/12 04:33:51;;;;;;;3.40;3.20;;;;;;;32.56;62.80;100614.31;5106404;27;65610;-40
2023/06/12 04:36:23;;;;;;;3.70;3.50;;;;;;;32.41;62.81;100580.31;5100388;27;70215;-41
2023/06/12 04:38:56;;;;;;;3.80;3.55;;;;;;;32.59;62.49;100594.84;5103047;27;66266;-41
2023/06/12 04:41:28;;;;;;;3.80;3.42;;;;;;;32.62;62.29;100589.75;5114760;27;70456;-40
2023/06/12 04:44:00;;;;;;;3.03;2.83;;;;;;;32.54;62.20;100573.00;5103219;27;65775;-42
2023/06/12 04:46:35;;;;;;;3.72;3.10;;;;;;;32.46;62.22;100563.38;5109884;27;69252;-41
2023/06/12 04:49:06;;;;;;;;;;;;;;;32.35;62.61;100594.84;5111422;27;65681;-40
2023/06/12 04:51:39;;;;;;;3.33;3.10;;;;;;;32.64;62.22;100600.38;5092749;27;70102;-40
2023/06/12 04:54:13;;;;;;;3.47;3.28;;;;;;;32.53;62.14;100564.03;5104987;27;66773;-40
2023/06/12 04:56:48;;;;;;;3.03;2.85;;;;;;;32.71;61.95;100579.38;5113270;27;70713;-40
2023/06/12 04:59:19;;;;;;;3.15;2.75;;;;;;;32.66;61.83;100571.09;5109705;27;65962;-41
2023/06/12 05:01:51;;;;;;;3.20;3.00;;;;;;;32.72;61.90;100578.28;5112137;27;69180;-41
2023/06/12 05:04:22;;;;;;;3.45;3.15;;;;;;;32.15;61.50;100470.38;5102093;27;66537;-40
2023/06/12 05:06:55;;;;;;;2.85;2.70;;;;;;;32.79;61.49;100561.84;5114808;27;69086;-41
2023/06/12 05:09:26;;;;;;;2.55;2.40;;;;;;;32.81;61.53;100560.53;5120228;27;65714;-41
2023/06/12 05:12:00;;;;;;;2.63;2.42;;;;;;;32.77;61.30;100542.25;5119897;27;70175;-41
2023/06/12 05:14:34;;;;;;;2.88;2.67;;;;;;;32.78;61.31;100544.72;5113653;27;65740;-40
2023/06/12 05:17:06;;;;;;;2.72;2.47;;;;;;;32.88;61.18;100549.56;5105746;27;70157;-40
2023/06/12 05:19:40;;;;;;;;;;;;;;;32.59;61.74;100545.97;5113540;27;66425;-41
2023/06/12 05:22:11;;;;;;;2.83;2.63;;;;;;;32.87;61.50;100548.69;5109090;27;70231;-41
2023/06/12 05:24:44;;;;;;;2.67;2.47;;;;;;;32.92;61.20;100539.84;5110375;27;66070;-43
2023/06/12 05:27:16;;;;;;;3.33;3.05;;;;;;;32.88;61.08;100544.94;5106785;27;71293;-40
2023/06/12 05:29:47;;;;;;;2.72;2.58;;;;;;;32.99;61.04;100542.38;5093811;27;66008;-41
2023/06/12 05:32:18;;;;;;;2.88;2.67;;;;;;;32.99;60.65;100534.25;5109427;27;70523;-40
2023/06/12 05:34:51;;;;;;;3.80;2.80;;;;;;;33.01;61.03;100543.00;5107149;27;66467;-43
2023/06/12 05:37:22;;;;;;;2.70;2.60;;;;;;;33.07;60.58;100536.59;5096451;27;69161;-43
2023/06/12 05:39:55;;;;;;;2.72;2.53;;;;;;;33.09;60.41;100542.63;5110535;27;66220;-40
2023/06/12 05:42:27;;;;;;;2.65;2.45;;;;;;;33.11;60.50;100537.78;5105291;27;70295;-40
2023/06/12 05:44:59;;;;;;;2.60;2.40;;;;;;;33.03;60.26;100502.84;5109785;27;65998;-40
2023/06/12 05:47:33;;;;;;;4.82;2.95;;;;;;;33.02;60.07;100495.78;5108275;27;69903;-42
2023/06/12 05:50:08;;;;;;;4.47;2.53;;;;;;;33.16;60.12;100529.72;5109516;27;65736;-40
2023/06/12 05:52:40;;;;;;;2.72;2.53;;;;;;;33.20;60.22;100539.03;5089997;27;69489;-44
2023/06/12 05:55:11;;;;;;;;;;;;;;;32.93;60.26;100536.03;5104400;27;66004;-41
2023/06/12 05:57:43;;;;;;;2.85;2.65;;;;;;;33.20;60.21;100532.78;5110128;27;69388;-41
2023/06/12 06:00:16;;;;;;;2.90;2.70;;;;;;;33.25;59.99;100532.88;5106637;27;65721;-43
2023/06/12 06:02:51;;;;;;;2.95;2.75;;;;;;;33.27;59.79;100526.13;5115722;27;69194;-43
2023/06/12 06:05:31;;;;;;;3.10;2.90;;;;;;;33.27;59.68;100515.25;5111422;27;67405;-40
2023/06/12 06:08:10;;;;;;;3.20;2.95;;;;;;;33.11;59.86;100483.44;5107631;27;68975;-44
2023/06/12 06:10:46;;;;;;;4.78;3.30;;;;;;;33.12;59.54;100479.63;5113634;27;65718;-41
2023/06/12 06:13:20;;;;;;;3.00;2.80;;;;;;;33.28;59.83;100497.84;5117448;27;70345;-41
2023/06/12 06:15:52;;;;;;;2.90;2.75;;;;;;;33.31;59.70;100500.06;5103501;27;66169;-42
2023/06/12 06:18:23;;;;;;;;;;;;;;;33.06;60.02;100494.19;5105553;27;70390;-43
2023/06/12 06:20:54;;;;;;;3.53;3.25;;;;;;;33.28;59.56;100481.53;5090763;27;65583;-42
2023/06/12 06:23:26;;;;;;;5.43;3.00;;;;;;;33.36;59.52;100481.13;5112476;27;69885;-44
2023/06/12 06:25:59;;;;;;;3.00;2.80;;;;;;;33.36;59.26;100486.56;5120279;27;66417;-45
2023/06/12 06:28:30;;;;;;;3.90;3.15;;;;;;;33.33;59.35;100470.75;5110858;27;70437;-45
2023/06/12 06:31:03;;;;;;;3.30;3.10;;;;;;;33.43;59.32;100480.13;5090476;27;66261;-41
2023/06/12 06:33:35;;;;;;;3.80;3.08;;;;;;;33.43;59.40;100459.22;5102690;27;69498;-44
2023/06/12 06:36:07;;;;;;;2.90;2.70;;;;;;;33.01;59.01;100388.13;5114050;27;65760;-42
2023/06/12 06:38:39;;;;;;;;;;;;;;;33.28;59.49;100451.63;5105619;27;69777;-40
2023/06/12 06:41:10;;;;;;;2.83;2.63;;;;;;;33.57;58.92;100459.72;5083913;27;66367;-39
2023/06/12 06:43:41;;;;;;;3.03;2.75;;;;;;;33.61;58.96;100451.91;5108213;27;70426;-41
2023/06/12 06:46:15;;;;;;;2.90;2.70;;;;;;;33.68;58.82;100445.19;5101849;27;65369;-40
2023/06/12 06:48:47;;;;;;;5.07;3.30;;;;;;;33.71;58.77;100438.44;5079660;27;68835;-41
2023/06/12 06:51:19;;;;;;;2.80;2.60;;;;;;;33.76;58.66;100442.06;5103228;27;65586;-42
2023/06/12 06:53:51;;;;;;;3.25;2.78;;;;;;;33.78;58.65;100423.59;5091186;27;70053;-41
2023/06/12 06:56:23;;;;;;;2.97;2.78;;;;;;;33.77;58.44;100410.25;5108421;27;67015;-44
2023/06/12 06:58:54;;;;;;;;;;;;;;;33.63;58.58;100434.28;5103130;27;69930;-42
2023/06/12 07:01:27;;;;;;;3.25;3.05;;;;;;;33.89;58.88;100429.19;5105641;27;66682;-43
2023/06/12 07:03:59;;;;;;;3.45;3.15;;;;;;;33.91;58.46;100433.31;5107135;27;69134;-40
2023/06/12 07:06:31;;;;;;;4.03;2.75;;;;;;;33.98;58.29;100446.72;5105463;27;65324;-42
2023/06/12 07:09:03;;;;;;;2.97;2.78;;;;;;;33.98;58.12;100438.56;5117480;27;69437;-42
2023/06/12 07:11:34;;;;;;;3.17;2.75;;;;;;;34.02;58.45;100439.72;5116327;27;66333;-44
2023/06/12 07:14:06;;;;;;;3.28;2.97;;;;;;;34.06;58.29;100440.88;5104220;27;70225;-40
2023/06/12 07:16:37;;;;;;;7.20;3.33;;;;;;;34.08;57.92;100443.34;5103389;27;66227;-41
2023/06/12 07:19:09;;;;;;;3.38;3.17;;;;;;;34.01;57.58;100429.88;5104496;27;70178;-42
2023/06/12 07:21:41;;;;;;;3.35;3.15;;;;;;;33.97;58.12;100417.88;5110065;27;64883;-40
2023/06/12 07:24:12;;;;;;;2.78;2.58;;;;;;;34.12;58.16;100417.25;5102312;27;69372;-45
2023/06/12 07:26:44;;;;;;;3.05;2.85;;;;;;;34.15;57.95;100417.56;5103347;27;66039;-41
2023/06/12 07:29:15;;;;;;;3.17;2.97;;;;;;;34.16;57.94;100408.34;5111608;27;69519;-42
2023/06/12 07:31:47;;;;;;;2.95;2.75;;;;;;;34.19;57.79;100405.09;5110586;27;66515;-43
2023/06/12 07:34:19;;;;;;;3.42;3.15;;;;;;;34.24;57.62;100393.44;5109622;27;69300;-42
2023/06/12 07:36:50;;;;;;;2.93;2.73;;;;;;;34.25;57.48;100390.47;5115899;27;66400;-42
2023/06/12 07:39:22;;;;;;;3.40;3.20;;;;;;;34.30;57.34;100392.44;5106203;27;70084;-45
2023/06/12 07:41:53;;;;;;;4.30;3.55;;;;;;;34.28;56.98;100394.59;5118924;27;66353;-43
2023/06/12 07:44:24;;;;;;;3.22;2.92;;;;;;;34.33;57.20;100394.66;5111437;27;70344;-41
2023/06/12 07:46:56;;;;;;;4.15;3.50;;;;;;;34.36;56.72;100390.59;5106491;27;65987;-46
2023/06/12 07:49:27;;;;;;;3.28;3.08;;;;;;;34.24;57.06;100361.63;5110535;27;69234;-42
2023/06/12 07:52:00;;;;;;;3.58;3.28;;;;;;;34.41;57.11;100371.59;5103198;27;66603;-43
2023/06/12 07:54:32;;;;;;;3.40;3.20;;;;;;;34.41;56.96;100388.75;5116299;27;69936;-44
2023/06/12 07:57:06;;;;;;;3.55;3.30;;;;;;;34.42;56.56;100393.09;5106752;27;66219;-42
2023/06/12 07:59:37;;;;;;;3.72;3.45;;;;;;;34.41;56.90;100387.94;5101868;27;69182;-41
2023/06/12 08:02:10;;;;;;;3.60;3.40;;;;;;;34.26;56.81;100370.31;5111232;27;64942;-45
2023/06/12 08:04:42;;;;;;;4.10;3.80;;;;;;;34.30;56.65;100358.91;5102734;27;69815;-45
2023/06/12 08:07:16;;;;;;;3.90;3.60;;;;;;;34.46;56.46;100375.19;5106927;27;66606;-42
2023/06/12 08:09:47;;;;;;;;;;;;;;;34.18;57.11;100372.69;5103042;27;69473;-42
2023/06/12 08:12:18;;;;;;;3.90;3.60;;;;;;;34.42;56.52;100390.38;5123274;27;66262;-41
2023/06/12 08:14:51;;;;;;;3.78;3.58;;;;;;;34.44;56.39;100377.34;5099471;27;69910;-42
2023/06/12 08:17:23;;;;;;;3.55;3.25;;;;;;;34.47;56.38;100397.78;5103081;27;66412;-40
2023/06/12 08:19:55;;;;;;;3.88;3.40;;;;;;;34.43;56.90;100375.66;5106027;27;70398;-42
2023/06/12 08:22:26;;;;;;;4.13;3.78;;;;;;;34.39;56.68;100384.63;5101606;27;65980;-41
2023/06/12 08:24:58;;;;;;;3.42;3.22;;;;;;;34.47;56.38;100395.06;5108355;27;69716;-41
2023/06/12 08:27:29;;;;;;;3.47;3.28;;;;;;;34.44;56.69;100398.31;5102622;27;66316;-42
2023/06/12 08:30:04;;;;;;;4.00;3.70;;;;;;;34.37;56.18;100398.50;5102368;27;70603;-41
2023/06/12 08:32:36;;;;;;;4.03;3.60;;;;;;;34.43;56.07;100418.44;5105596;27;66680;-41
2023/06/12 08:35:08;;;;;;;4.82;4.45;;;;;;;34.40;56.69;100448.88;5103642;27;68910;-42
2023/06/12 08:37:41;;;;;;;4.07;3.67;;;;;;;34.36;56.72;100458.66;5088425;27;65322;-40
2023/06/12 08:40:12;;;;;;;4.50;4.20;;;;;;;34.17;56.92;100437.19;5107180;27;68875;-42
2023/06/12 08:42:51;;;;;;;5.15;4.80;;;;;;;34.33;56.67;100479.06;5101632;27;65766;-41
2023/06/12 08:45:33;;;;;;;6.75;4.30;;;;;;;34.18;56.94;100460.59;5117983;27;69648;-40
2023/06/12 08:48:06;;;;;;;5.03;4.63;;;;;;;33.58;56.94;100383.34;5109363;27;66402;-41
2023/06/12 08:50:38;;;;;;;5.43;4.93;;;;;;;33.93;57.66;100433.03;5117114;27;70576;-40
2023/06/12 08:53:15;;;;;;;5.32;4.93;;;;;;;34.30;57.52;100500.50;5109010;27;65694;-41
2023/06/12 08:55:46;;;;;;;5.10;4.70;;;;;;;34.26;58.07;100505.63;5109851;27;69034;-40
2023/06/12 08:58:19;;;;;;;;;;;;;;;33.95;58.66;100510.63;5113514;27;66175;-40
2023/06/12 09:01:04;;;;;;;6.13;5.53;;;;;;;34.06;58.14;100484.41;5106624;27;70659;-40
2023/06/12 09:03:37;;;;;;;5.15;4.65;;;;;;;34.03;58.53;100501.22;5105057;27;66538;-40
2023/06/12 09:06:09;;;;;;;4.80;4.40;;;;;;;34.19;58.47;100522.16;5117537;27;70601;-41
2023/06/12 09:08:41;;;;;;;4.88;4.47;;;;;;;34.00;58.61;100485.38;5098653;27;66296;-42
2023/06/12 09:11:12;;;;;;;5.45;4.35;;;;;;;34.16;58.89;100525.38;5115873;27;69503;-41
2023/06/12 09:13:44;;;;;;;4.70;4.32;;;;;;;34.09;58.81;100508.41;5111560;27;65772;-42
2023/06/12 09:16:15;;;;;;;5.68;3.97;;;;;;;34.03;59.09;100495.78;5103404;27;70352;-40
2023/06/12 09:18:52;;;;;;;4.32;3.97;;;;;;;34.05;59.02;100492.84;5114087;27;65497;-41
2023/06/12 09:21:24;;;;;;;4.70;4.35;;;;;;;33.99;59.11;100492.75;5108094;27;69949;-44
2023/06/12 09:23:56;;;;;;;6.50;3.88;;;;;;;33.98;59.42;100509.31;5112325;27;66314;-42
2023/06/12 09:26:27;;;;;;;;;;;;;;;33.64;60.38;100514.78;5122807;27;70075;-41
2023/06/12 09:29:00;;;;;;;4.30;3.40;;;;;;;33.82;59.90;100519.13;5120303;27;66031;-41
2023/06/12 09:31:34;;;;;;;4.10;3.80;;;;;;;32.84;59.78;100372.63;5103603;27;70078;-41
2023/06/12 09:34:06;;;;;;;4.55;4.20;;;;;;;33.11;59.70;100429.91;5105224;27;66541;-41
2023/06/12 09:36:38;;;;;;;4.30;3.95;;;;;;;33.79;59.93;100561.28;5116316;27;70090;-42
2023/06/12 09:39:17;;;;;;;4.05;3.75;;;;;;;33.02;60.04;100457.72;5112668;27;65623;-43
2023/06/12 09:41:49;;;;;;;4.18;3.78;;;;;;;33.53;60.30;100570.91;5102222;27;69581;-42
2023/06/12 09:44:25;;;;;;;4.07;3.40;;;;;;;32.94;60.33;100489.63;5107946;27;67033;-41
2023/06/12 09:47:04;;;;;;;4.32;3.70;;;;;;;33.58;60.39;100640.88;5115670;27;70239;-40
2023/06/12 09:49:39;;;;;;;4.60;3.85;;;;;;;33.66;60.42;100636.94;5109681;27;66110;-43
2023/06/12 09:52:12;;;;;;;3.53;3.22;;;;;;;33.46;60.46;100629.19;5107340;27;69418;-44
2023/06/12 09:54:46;;;;;;;3.70;3.42;;;;;;;33.59;60.52;100662.38;5106500;27;66322;-42
2023/06/12 09:57:18;;;;;;;3.75;3.45;;;;;;;33.53;60.65;100667.97;5105206;27;70651;-43
2023/06/12 09:59:53;;;;;;;3.75;3.53;;;;;;;33.49;61.04;100669.50;5107738;27;66498;-42
2023/06/12 10:02:24;;;;;;;3.58;3.28;;;;;;;33.28;60.64;100636.50;5111060;27;71324;-41
2023/06/12 10:05:22;;;;;;;3.60;3.40;;;;;;;33.43;61.02;100659.59;5086140;27;65348;-42
2023/06/12 10:07:56;;;;;;;3.80;3.50;;;;;;;33.41;61.57;100657.13;5106693;27;70363;-45
2023/06/12 10:10:28;;;;;;;3.75;3.45;;;;;;;33.38;61.25;100680.19;5103475;27;66899;-41
2023/06/12 10:13:02;;;;;;;2.88;2.60;;;;;;;33.34;61.19;100664.59;5115483;27;70004;-42
2023/06/12 10:15:33;;;;;;;3.67;3.20;;;;;;;33.32;61.13;100647.69;5105952;27;65929;-41
2023/06/12 10:18:10;;;;;;;3.47;3.22;;;;;;;33.27;61.53;100637.56;5115205;27;69403;-40
2023/06/12 10:20:46;;;;;;;3.33;3.13;;;;;;;33.21;61.48;100624.94;5102930;27;66300;-45
2023/06/12 10:23:18;;;;;;;3.25;3.05;;;;;;;32.92;61.64;100592.28;5103792;27;70430;-41
2023/06/12 10:25:51;;;;;;;3.47;3.17;;;;;;;33.19;61.24;100659.69;5103753;27;65712;-43
2023/06/12 10:28:22;;;;;;;3.30;3.00;;;;;;;33.07;61.54;100645.31;5101294;27;70003;-44
2023/06/12 10:31:17;;;;;;;3.13;2.92;;;;;;;32.94;62.13;100658.06;5108561;27;65443;-42
2023/06/12 10:34:12;;;;;;;3.33;3.13;;;;;;;32.72;62.23;100616.31;5108680;27;69966;-43
2023/06/12 10:36:46;;;;;;;2.80;2.60;;;;;;;33.13;61.84;100666.94;5100409;27;66916;-41
2023/06/12 10:39:27;;;;;;;3.30;3.00;;;;;;;32.82;62.18;100621.97;5104093;27;69617;-42
2023/06/12 10:41:59;;;;;;;4.13;3.30;;;;;;;33.10;62.66;100675.56;5104078;27;66382;-45
2023/06/12 10:44:43;;;;;;;16.08;4.28;;;;;;;32.93;65.20;100683.59;5105607;27;70556;-46
2023/06/12 10:47:21;;;;;;;6.50;3.65;;;;;;;31.75;65.92;100524.50;5104755;27;66523;-40
2023/06/12 10:50:05;;;;;;;12.95;3.55;;;;;;;32.56;66.27;100666.75;5106218;27;70137;-40
2023/06/12 10:52:36;;;;;;;4.15;3.67;;;;;;;32.71;67.14;100701.59;5100357;27;66369;-41
2023/06/12 10:55:14;;;;;;;5.03;3.60;;;;;;;32.58;67.02;100701.81;5115803;27;69231;-44
2023/06/12 10:57:56;;;;;;;3.78;3.10;;;;;;;32.63;67.16;100707.38;5109675;27;66748;-41
2023/06/12 11:00:38;;;;;;;4.78;3.10;;;;;;;32.46;67.13;100682.81;5111119;27;70004;-42
2023/06/12 11:03:16;;;;;;;4.00;3.40;;;;;;;32.01;67.13;100616.31;5107930;27;64932;-42
2023/06/12 11:05:49;;;;;;;4.50;3.53;;;;;;;32.60;67.08;100707.84;5103568;27;70618;-41
2023/06/12 11:08:21;;;;;;;9.15;3.17;;;;;;;32.57;67.46;100711.00;5103639;27;65591;-41
2023/06/12 11:10:52;;;;;;;6.60;3.58;;;;;;;32.52;67.80;100714.44;5102096;27;70800;-45
2023/06/12 11:13:27;;;;;;;10.83;3.70;;;;;;;32.55;68.07;100740.31;5112049;27;65711;-44
2023/06/12 11:15:58;;;;;;;11.45;3.90;;;;;;;32.41;68.25;100713.34;5110156;27;69746;-41
2023/06/12 11:18:30;;;;;;;3.97;3.35;;;;;;;32.38;68.64;100719.25;5113877;27;64712;-43
2023/06/12 11:21:02;;;;;;;;;;;;;;;32.33;69.18;100743.53;5101648;27;70314;-42
2023/06/12 11:23:33;;;;;;;4.77;4.07;;;;;;;32.49;69.01;100737.47;5111078;27;65497;-43
2023/06/12 11:26:07;;;;;;;11.68;4.72;;;;;;;32.49;69.05;100737.47;5114826;27;69696;-42
2023/06/12 11:28:38;;;;;;;21.77;4.32;;;;;;;32.50;69.50;100732.84;5107141;27;66390;-42
2023/06/12 11:31:10;;;;;;;10.77;4.75;;;;;;;32.49;69.35;100732.03;5099173;27;70168;-41
2023/06/12 11:33:43;;;;;;;9.18;4.90;;;;;;;32.49;69.59;100732.03;5107075;27;65937;-45
2023/06/12 11:36:14;;;;;;;21.05;4.57;;;;;;;32.42;70.16;100720.41;5106066;27;70126;-42
2023/06/12 11:38:45;;;;;;;7.55;4.70;;;;;;;32.47;69.78;100727.91;5107659;27;66107;-42
2023/06/12 11:41:20;;;;;;;6.28;5.07;;;;;;;32.48;69.70;100727.69;5110515;27;69636;-41
2023/06/12 11:43:51;;;;;;;10.70;4.82;;;;;;;32.44;70.03;100721.03;5103908;27;66320;-40
2023/06/12 11:46:23;;;;;;;17.40;5.50;;;;;;;32.43;69.86;100732.94;5101787;27;69329;-42
2023/06/12 11:48:59;;;;;;;6.28;5.68;;;;;;;32.42;69.87;100738.59;5105291;27;65759;-44
2023/06/12 11:51:33;;;;;;;8.77;6.30;;;;;;;32.41;69.82;100740.50;5107517;27;69883;-41
2023/06/12 11:54:04;;;;;;;11.52;5.70;;;;;;;32.37;69.90;100742.00;5112649;27;65693;-40